sensor_id;sensor_type;location;lat;lon;timestamp;P1;durP1;ratioP1;P2;durP2;ratioP2
57893;SDS011;43710;47.460;19.034;2023-04-25T04:05:05;3.80;;;2.70;;
57893;SDS011;43710;47.460;19.034;2023-04-25T04:08:09;5.47;;;2.87;;
57893;SDS011;43710;47.460;19.034;2023-04-25T04:11:13;4.87;;;2.95;;
57893;SDS011;43710;47.460;19.034;2023-04-25T04:14:16;3.72;;;2.80;;
57893;SDS011;43710;47.460;19.034;2023-04-25T04:17:18;3.40;;;2.53;;
57893;SDS011;43710;47.460;19.034;2023-04-25T04:20:21;3.87;;;2.60;;
57893;SDS011;43710;47.460;19.034;2023-04-25T04:23:23;5.18;;;2.90;;
57893;SDS011;43710;47.460;19.034;2023-04-25T04:26:26;3.05;;;2.58;;
57893;SDS011;43710;47.460;19.034;2023-04-25T04:29:29;4.22;;;3.10;;
57893;SDS011;43710;47.460;19.034;2023-04-25T04:32:32;4.22;;;3.35;;
57893;SDS011;43710;47.460;19.034;2023-04-25T04:35:37;4.30;;;3.37;;
57893;SDS011;43710;47.460;19.034;2023-04-25T04:38:40;5.47;;;3.37;;
57893;SDS011;43710;47.460;19.034;2023-04-25T04:41:44;4.03;;;3.33;;
57893;SDS011;43710;47.460;19.034;2023-04-25T04:44:47;4.53;;;3.25;;
57893;SDS011;43710;47.460;19.034;2023-04-25T04:47:51;4.47;;;3.53;;
57893;SDS011;43710;47.460;19.034;2023-04-25T04:50:55;3.80;;;3.15;;
57893;SDS011;43710;47.460;19.034;2023-04-25T04:53:58;4.85;;;2.70;;
57893;SDS011;43710;47.460;19.034;2023-04-25T04:57:04;5.22;;;3.30;;
57893;SDS011;43710;47.460;19.034;2023-04-25T05:00:07;4.10;;;3.55;;
57893;SDS011;43710;47.460;19.034;2023-04-25T05:03:14;3.08;;;2.60;;
57893;SDS011;43710;47.460;19.034;2023-04-25T05:06:17;4.47;;;2.67;;
57893;SDS011;43710;47.460;19.034;2023-04-25T05:09:20;6.50;;;2.50;;
57893;SDS011;43710;47.460;19.034;2023-04-25T05:12:28;7.43;;;2.85;;
57893;SDS011;43710;47.460;19.034;2023-04-25T05:15:30;4.35;;;2.58;;
57893;SDS011;43710;47.460;19.034;2023-04-25T05:18:33;4.50;;;2.85;;
57893;SDS011;43710;47.460;19.034;2023-04-25T05:21:36;3.95;;;2.40;;
57893;SDS011;43710;47.460;19.034;2023-04-25T05:24:39;4.07;;;2.70;;
57893;SDS011;43710;47.460;19.034;2023-04-25T05:27:42;2.60;;;2.17;;
57893;SDS011;43710;47.460;19.034;2023-04-25T05:30:44;3.45;;;2.37;;
57893;SDS011;43710;47.460;19.034;2023-04-25T05:33:48;5.53;;;2.80;;
57893;SDS011;43710;47.460;19.034;2023-04-25T05:36:51;4.28;;;3.12;;
57893;SDS011;43710;47.460;19.034;2023-04-25T05:39:54;3.05;;;2.33;;
57893;SDS011;43710;47.460;19.034;2023-04-25T05:42:58;4.25;;;2.53;;
57893;SDS011;43710;47.460;19.034;2023-04-25T05:46:00;3.65;;;2.30;;
57893;SDS011;43710;47.460;19.034;2023-04-25T05:49:03;3.20;;;2.15;;
57893;SDS011;43710;47.460;19.034;2023-04-25T05:52:05;4.00;;;2.40;;
57893;SDS011;43710;47.460;19.034;2023-04-25T05:55:08;5.03;;;2.25;;
57893;SDS011;43710;47.460;19.034;2023-04-25T05:58:11;5.03;;;2.85;;
57893;SDS011;43710;47.460;19.034;2023-04-25T06:01:13;3.72;;;2.40;;
57893;SDS011;43710;47.460;19.034;2023-04-25T06:04:18;4.78;;;2.72;;
57893;SDS011;43710;47.460;19.034;2023-04-25T06:07:20;4.75;;;2.72;;
57893;SDS011;43710;47.460;19.034;2023-04-25T06:10:23;5.28;;;3.22;;
57893;SDS011;43710;47.460;19.034;2023-04-25T06:13:25;4.53;;;3.72;;
57893;SDS011;43710;47.460;19.034;2023-04-25T06:16:29;4.90;;;3.15;;
57893;SDS011;43710;47.460;19.034;2023-04-25T06:19:32;4.25;;;3.40;;
57893;SDS011;43710;47.460;19.034;2023-04-25T06:22:35;5.78;;;3.72;;
57893;SDS011;43710;47.460;19.034;2023-04-25T06:25:38;5.20;;;3.80;;
57893;SDS011;43710;47.460;19.034;2023-04-25T06:28:40;5.40;;;3.78;;
57893;SDS011;43710;47.460;19.034;2023-04-25T06:31:43;4.60;;;3.97;;
57893;SDS011;43710;47.460;19.034;2023-04-25T06:34:46;5.07;;;4.00;;
57893;SDS011;43710;47.460;19.034;2023-04-25T06:37:48;5.20;;;3.87;;
57893;SDS011;43710;47.460;19.034;2023-04-25T06:40:55;6.10;;;4.75;;
57893;SDS011;43710;47.460;19.034;2023-04-25T06:43:57;6.53;;;4.50;;
57893;SDS011;43710;47.460;19.034;2023-04-25T06:47:01;5.93;;;4.37;;
57893;SDS011;43710;47.460;19.034;2023-04-25T06:50:04;6.00;;;4.90;;
57893;SDS011;43710;47.460;19.034;2023-04-25T06:53:09;5.40;;;4.53;;
57893;SDS011;43710;47.460;19.034;2023-04-25T06:56:14;6.75;;;4.87;;
57893;SDS011;43710;47.460;19.034;2023-04-25T06:59:18;5.30;;;4.40;;
57893;SDS011;43710;47.460;19.034;2023-04-25T07:02:20;5.82;;;4.70;;
57893;SDS011;43710;47.460;19.034;2023-04-25T07:05:24;5.47;;;4.55;;
57893;SDS011;43710;47.460;19.034;2023-04-25T07:08:26;4.97;;;4.37;;
57893;SDS011;43710;47.460;19.034;2023-04-25T07:11:31;5.68;;;4.50;;
57893;SDS011;43710;47.460;19.034;2023-04-25T07:14:34;5.45;;;4.50;;
57893;SDS011;43710;47.460;19.034;2023-04-25T07:17:36;6.97;;;4.50;;
57893;SDS011;43710;47.460;19.034;2023-04-25T07:20:39;6.60;;;4.60;;
57893;SDS011;43710;47.460;19.034;2023-04-25T07:23:42;4.93;;;4.25;;
57893;SDS011;43710;47.460;19.034;2023-04-25T07:26:44;5.90;;;4.30;;
57893;SDS011;43710;47.460;19.034;2023-04-25T07:29:50;4.77;;;4.27;;
57893;SDS011;43710;47.460;19.034;2023-04-25T07:32:52;4.65;;;3.87;;
57893;SDS011;43710;47.460;19.034;2023-04-25T07:35:55;6.03;;;4.20;;
57893;SDS011;43710;47.460;19.034;2023-04-25T07:38:57;6.20;;;4.35;;
57893;SDS011;43710;47.460;19.034;2023-04-25T07:42:00;6.30;;;4.32;;
57893;SDS011;43710;47.460;19.034;2023-04-25T07:45:04;7.65;;;4.18;;
57893;SDS011;43710;47.460;19.034;2023-04-25T07:48:07;5.65;;;4.35;;
57893;SDS011;43710;47.460;19.034;2023-04-25T07:51:10;5.45;;;4.00;;
57893;SDS011;43710;47.460;19.034;2023-04-25T07:54:13;5.50;;;3.92;;
57893;SDS011;43710;47.460;19.034;2023-04-25T07:57:17;6.80;;;4.20;;
57893;SDS011;43710;47.460;19.034;2023-04-25T08:00:22;5.07;;;3.95;;
57893;SDS011;43710;47.460;19.034;2023-04-25T08:03:26;4.12;;;3.45;;
57893;SDS011;43710;47.460;19.034;2023-04-25T08:06:30;5.45;;;3.72;;
57893;SDS011;43710;47.460;19.034;2023-04-25T08:09:33;5.50;;;3.65;;
57893;SDS011;43710;47.460;19.034;2023-04-25T08:12:37;4.72;;;3.58;;
57893;SDS011;43710;47.460;19.034;2023-04-25T08:15:41;4.60;;;3.90;;
57893;SDS011;43710;47.460;19.034;2023-04-25T08:18:43;5.22;;;3.60;;
57893;SDS011;43710;47.460;19.034;2023-04-25T08:21:47;3.75;;;3.35;;
57893;SDS011;43710;47.460;19.034;2023-04-25T08:24:50;4.00;;;3.40;;
57893;SDS011;43710;47.460;19.034;2023-04-25T08:27:52;4.55;;;3.65;;
57893;SDS011;43710;47.460;19.034;2023-04-25T08:30:55;4.65;;;3.58;;
57893;SDS011;43710;47.460;19.034;2023-04-25T08:33:58;4.90;;;3.92;;
57893;SDS011;43710;47.460;19.034;2023-04-25T08:37:00;5.43;;;3.40;;
57893;SDS011;43710;47.460;19.034;2023-04-25T08:40:03;4.47;;;3.72;;
57893;SDS011;43710;47.460;19.034;2023-04-25T08:43:12;5.45;;;3.70;;
57893;SDS011;43710;47.460;19.034;2023-04-25T08:46:17;5.75;;;3.53;;
57893;SDS011;43710;47.460;19.034;2023-04-25T08:49:21;5.35;;;3.87;;
57893;SDS011;43710;47.460;19.034;2023-04-25T08:52:24;5.00;;;3.58;;
57893;SDS011;43710;47.460;19.034;2023-04-25T08:55:32;4.20;;;3.50;;
57893;SDS011;43710;47.460;19.034;2023-04-25T08:58:35;4.78;;;4.07;;
57893;SDS011;43710;47.460;19.034;2023-04-25T09:01:38;5.07;;;3.70;;
57893;SDS011;43710;47.460;19.034;2023-04-25T09:04:43;4.72;;;4.03;;
57893;SDS011;43710;47.460;19.034;2023-04-25T09:07:46;4.47;;;3.60;;
57893;SDS011;43710;47.460;19.034;2023-04-25T09:10:51;5.82;;;4.32;;
57893;SDS011;43710;47.460;19.034;2023-04-25T09:14:09;6.12;;;3.47;;
57893;SDS011;43710;47.460;19.034;2023-04-25T09:17:25;10.10;;;3.60;;
57893;SDS011;43710;47.460;19.034;2023-04-25T09:20:28;4.70;;;3.45;;
57893;SDS011;43710;47.460;19.034;2023-04-25T09:23:40;4.50;;;3.70;;
57893;SDS011;43710;47.460;19.034;2023-04-25T09:26:43;4.25;;;3.70;;
57893;SDS011;43710;47.460;19.034;2023-04-25T09:29:48;6.75;;;3.90;;
57893;SDS011;43710;47.460;19.034;2023-04-25T09:33:09;4.05;;;3.65;;
57893;SDS011;43710;47.460;19.034;2023-04-25T09:36:13;5.80;;;3.97;;
57893;SDS011;43710;47.460;19.034;2023-04-25T09:39:16;6.05;;;3.55;;
57893;SDS011;43710;47.460;19.034;2023-04-25T09:42:21;5.00;;;3.87;;
57893;SDS011;43710;47.460;19.034;2023-04-25T09:45:29;3.95;;;3.50;;
57893;SDS011;43710;47.460;19.034;2023-04-25T09:48:32;3.97;;;3.03;;
57893;SDS011;43710;47.460;19.034;2023-04-25T09:51:36;3.85;;;3.20;;
57893;SDS011;43710;47.460;19.034;2023-04-25T09:54:39;4.05;;;3.20;;
57893;SDS011;43710;47.460;19.034;2023-04-25T09:57:41;3.78;;;3.25;;
57893;SDS011;43710;47.460;19.034;2023-04-25T10:00:46;4.45;;;2.80;;
57893;SDS011;43710;47.460;19.034;2023-04-25T10:03:50;3.10;;;2.50;;
57893;SDS011;43710;47.460;19.034;2023-04-25T10:06:59;2.33;;;2.12;;
57893;SDS011;43710;47.460;19.034;2023-04-25T10:10:04;4.22;;;2.60;;
57893;SDS011;43710;47.460;19.034;2023-04-25T10:13:07;3.92;;;2.47;;
57893;SDS011;43710;47.460;19.034;2023-04-25T10:16:11;3.97;;;2.55;;
57893;SDS011;43710;47.460;19.034;2023-04-25T10:19:13;2.42;;;2.12;;
57893;SDS011;43710;47.460;19.034;2023-04-25T10:25:33;2.28;;;1.95;;
57893;SDS011;43710;47.460;19.034;2023-04-25T10:28:57;2.40;;;2.10;;
57893;SDS011;43710;47.460;19.034;2023-04-25T10:32:02;4.55;;;1.85;;
57893;SDS011;43710;47.460;19.034;2023-04-25T10:35:15;2.60;;;2.03;;
57893;SDS011;43710;47.460;19.034;2023-04-25T10:38:19;2.55;;;2.03;;
57893;SDS011;43710;47.460;19.034;2023-04-25T10:41:22;3.75;;;1.70;;
57893;SDS011;43710;47.460;19.034;2023-04-25T10:44:31;2.30;;;1.80;;
57893;SDS011;43710;47.460;19.034;2023-04-25T10:47:34;1.50;;;1.40;;
57893;SDS011;43710;47.460;19.034;2023-04-25T10:50:39;2.28;;;1.25;;
57893;SDS011;43710;47.460;19.034;2023-04-25T10:53:45;2.10;;;1.30;;
57893;SDS011;43710;47.460;19.034;2023-04-25T10:56:48;3.12;;;1.20;;
57893;SDS011;43710;47.460;19.034;2023-04-25T10:59:53;1.30;;;1.20;;
57893;SDS011;43710;47.460;19.034;2023-04-25T11:02:58;2.37;;;1.17;;
57893;SDS011;43710;47.460;19.034;2023-04-25T11:06:01;1.00;;;0.90;;
57893;SDS011;43710;47.460;19.034;2023-04-25T11:09:08;1.00;;;1.00;;
57893;SDS011;43710;47.460;19.034;2023-04-25T11:12:15;1.23;;;1.08;;
57893;SDS011;43710;47.460;19.034;2023-04-25T11:15:18;0.90;;;0.90;;
57893;SDS011;43710;47.460;19.034;2023-04-25T11:18:21;1.95;;;0.98;;
57893;SDS011;43710;47.460;19.034;2023-04-25T11:21:28;1.00;;;0.88;;
57893;SDS011;43710;47.460;19.034;2023-04-25T11:24:35;2.10;;;1.10;;
57893;SDS011;43710;47.460;19.034;2023-04-25T11:27:48;1.10;;;0.90;;
57893;SDS011;43710;47.460;19.034;2023-04-25T11:30:53;2.60;;;0.90;;
57893;SDS011;43710;47.460;19.034;2023-04-25T11:33:58;1.17;;;0.80;;
57893;SDS011;43710;47.460;19.034;2023-04-25T11:37:04;1.00;;;0.80;;
57893;SDS011;43710;47.460;19.034;2023-04-25T11:40:07;1.17;;;0.62;;
57893;SDS011;43710;47.460;19.034;2023-04-25T11:43:11;2.00;;;0.75;;
57893;SDS011;43710;47.460;19.034;2023-04-25T11:46:14;0.82;;;0.75;;
57893;SDS011;43710;47.460;19.034;2023-04-25T11:49:17;1.12;;;0.93;;
57893;SDS011;43710;47.460;19.034;2023-04-25T11:52:20;0.65;;;0.65;;
57893;SDS011;43710;47.460;19.034;2023-04-25T11:55:23;1.12;;;0.90;;
57893;SDS011;43710;47.460;19.034;2023-04-25T11:58:26;1.42;;;1.10;;
57893;SDS011;43710;47.460;19.034;2023-04-25T12:01:32;4.57;;;1.15;;
57893;SDS011;43710;47.460;19.034;2023-04-25T12:04:39;1.23;;;0.90;;
57893;SDS011;43710;47.460;19.034;2023-04-25T12:07:43;1.00;;;1.00;;
57893;SDS011;43710;47.460;19.034;2023-04-25T12:10:46;3.70;;;1.08;;
57893;SDS011;43710;47.460;19.034;2023-04-25T12:13:51;1.55;;;1.10;;
57893;SDS011;43710;47.460;19.034;2023-04-25T12:16:55;1.30;;;1.20;;
57893;SDS011;43710;47.460;19.034;2023-04-25T12:19:59;1.62;;;1.23;;
57893;SDS011;43710;47.460;19.034;2023-04-25T12:23:07;2.25;;;1.30;;
57893;SDS011;43710;47.460;19.034;2023-04-25T12:26:09;1.48;;;1.02;;
57893;SDS011;43710;47.460;19.034;2023-04-25T12:29:16;3.22;;;1.00;;
57893;SDS011;43710;47.460;19.034;2023-04-25T12:32:23;1.23;;;1.12;;
57893;SDS011;43710;47.460;19.034;2023-04-25T12:35:26;2.47;;;1.20;;
57893;SDS011;43710;47.460;19.034;2023-04-25T12:38:28;2.25;;;1.20;;
57893;SDS011;43710;47.460;19.034;2023-04-25T12:41:32;1.27;;;1.17;;
57893;SDS011;43710;47.460;19.034;2023-04-25T12:44:34;1.87;;;1.30;;
57893;SDS011;43710;47.460;19.034;2023-04-25T12:47:37;3.37;;;1.50;;
57893;SDS011;43710;47.460;19.034;2023-04-25T12:50:40;6.07;;;1.48;;
57893;SDS011;43710;47.460;19.034;2023-04-25T12:53:43;1.37;;;1.15;;
57893;SDS011;43710;47.460;19.034;2023-04-25T12:56:45;1.83;;;1.37;;
57893;SDS011;43710;47.460;19.034;2023-04-25T12:59:48;1.73;;;1.30;;
57893;SDS011;43710;47.460;19.034;2023-04-25T13:02:50;2.58;;;1.40;;
57893;SDS011;43710;47.460;19.034;2023-04-25T13:05:53;1.50;;;1.40;;
57893;SDS011;43710;47.460;19.034;2023-04-25T13:08:56;3.28;;;1.60;;
57893;SDS011;43710;47.460;19.034;2023-04-25T13:11:58;1.70;;;1.40;;
57893;SDS011;43710;47.460;19.034;2023-04-25T13:15:00;2.20;;;1.50;;
57893;SDS011;43710;47.460;19.034;2023-04-25T13:18:03;1.60;;;1.20;;
57893;SDS011;43710;47.460;19.034;2023-04-25T13:21:08;2.90;;;1.75;;
57893;SDS011;43710;47.460;19.034;2023-04-25T13:24:12;3.00;;;1.70;;
57893;SDS011;43710;47.460;19.034;2023-04-25T13:27:14;2.60;;;1.80;;
57893;SDS011;43710;47.460;19.034;2023-04-25T13:30:17;1.48;;;1.37;;
57893;SDS011;43710;47.460;19.034;2023-04-25T13:33:19;1.95;;;1.42;;
57893;SDS011;43710;47.460;19.034;2023-04-25T13:36:22;3.15;;;1.85;;
57893;SDS011;43710;47.460;19.034;2023-04-25T13:39:25;3.10;;;1.60;;
57893;SDS011;43710;47.460;19.034;2023-04-25T13:42:27;4.15;;;1.80;;
57893;SDS011;43710;47.460;19.034;2023-04-25T13:45:30;2.45;;;1.58;;
57893;SDS011;43710;47.460;19.034;2023-04-25T13:48:35;2.22;;;1.70;;
57893;SDS011;43710;47.460;19.034;2023-04-25T13:51:37;2.65;;;1.70;;
57893;SDS011;43710;47.460;19.034;2023-04-25T13:54:41;1.87;;;1.60;;
57893;SDS011;43710;47.460;19.034;2023-04-25T13:57:43;1.60;;;1.50;;
57893;SDS011;43710;47.460;19.034;2023-04-25T14:00:45;3.12;;;1.95;;
57893;SDS011;43710;47.460;19.034;2023-04-25T14:03:48;3.05;;;1.52;;
57893;SDS011;43710;47.460;19.034;2023-04-25T14:06:51;4.45;;;1.87;;
57893;SDS011;43710;47.460;19.034;2023-04-25T14:09:54;1.85;;;1.52;;
57893;SDS011;43710;47.460;19.034;2023-04-25T14:12:56;3.53;;;1.50;;
57893;SDS011;43710;47.460;19.034;2023-04-25T14:15:58;3.92;;;1.70;;
57893;SDS011;43710;47.460;19.034;2023-04-25T14:19:01;3.10;;;1.75;;
57893;SDS011;43710;47.460;19.034;2023-04-25T14:22:03;2.15;;;1.52;;
57893;SDS011;43710;47.460;19.034;2023-04-25T14:25:05;2.80;;;1.48;;
57893;SDS011;43710;47.460;19.034;2023-04-25T14:28:09;2.78;;;1.80;;
57893;SDS011;43710;47.460;19.034;2023-04-25T14:31:11;2.95;;;1.35;;
57893;SDS011;43710;47.460;19.034;2023-04-25T14:34:13;1.95;;;1.70;;
57893;SDS011;43710;47.460;19.034;2023-04-25T14:37:15;6.60;;;1.73;;
57893;SDS011;43710;47.460;19.034;2023-04-25T14:40:18;2.05;;;1.62;;
57893;SDS011;43710;47.460;19.034;2023-04-25T14:43:23;2.03;;;1.60;;
57893;SDS011;43710;47.460;19.034;2023-04-25T14:46:26;4.05;;;1.60;;
57893;SDS011;43710;47.460;19.034;2023-04-25T14:49:28;2.58;;;1.60;;
57893;SDS011;43710;47.460;19.034;2023-04-25T14:52:31;2.33;;;1.58;;
57893;SDS011;43710;47.460;19.034;2023-04-25T14:55:33;3.05;;;1.42;;
57893;SDS011;43710;47.460;19.034;2023-04-25T14:58:36;2.40;;;1.62;;
57893;SDS011;43710;47.460;19.034;2023-04-25T15:01:39;3.05;;;1.85;;
57893;SDS011;43710;47.460;19.034;2023-04-25T15:04:42;2.00;;;1.50;;
57893;SDS011;43710;47.460;19.034;2023-04-25T15:07:44;2.65;;;1.70;;
57893;SDS011;43710;47.460;19.034;2023-04-25T15:10:47;2.35;;;1.37;;
57893;SDS011;43710;47.460;19.034;2023-04-25T15:13:49;1.80;;;1.65;;
57893;SDS011;43710;47.460;19.034;2023-04-25T15:16:52;2.53;;;1.70;;
57893;SDS011;43710;47.460;19.034;2023-04-25T15:19:54;2.28;;;1.50;;
57893;SDS011;43710;47.460;19.034;2023-04-25T15:22:57;2.45;;;1.58;;
57893;SDS011;43710;47.460;19.034;2023-04-25T15:25:59;2.70;;;1.62;;
